Time;durP1;ratioP1;P1;durP2;ratioP2;P2;SDS_P1;SDS_P2;PMS_P1;PMS_P2;Temp;Humidity;BMP_temperature;BMP_pressure;BME280_temperature;BME280_humidity;BME280_pressure;Samples;Min_cycle;Max_cycle;Signal;HPM_P1;HPM_P2
2021/01/23 00:01:30;;;;;;;4.93;2.20;;;1.90;94.00;;;;;;5026750;28;20121;-73
2021/01/23 00:03:57;;;;;;;8.03;3.37;;;1.90;94.00;;;;;;5012411;28;20057;-73
2021/01/23 00:06:24;;;;;;;5.63;3.50;;;1.90;94.00;;;;;;5009950;28;20492;-72
2021/01/23 00:08:50;;;;;;;6.17;2.60;;;1.90;94.00;;;;;;5015652;28;20057;-73
2021/01/23 00:11:16;;;;;;;5.70;2.70;;;1.90;94.00;;;;;;5032807;28;20041;-72
2021/01/23 00:13:43;;;;;;;6.07;2.63;;;1.90;94.00;;;;;;5032526;28;20041;-75
2021/01/23 00:16:09;;;;;;;6.07;2.70;;;1.90;94.00;;;;;;5013935;28;20045;-73
2021/01/23 00:18:36;;;;;;;5.57;2.73;;;1.90;94.00;;;;;;5013327;28;20053;-72
2021/01/23 00:21:03;;;;;;;6.17;3.20;;;1.90;94.10;;;;;;5016074;28;20041;-73
2021/01/23 00:23:29;;;;;;;5.43;2.73;;;1.90;94.00;;;;;;5002152;28;20560;-73
2021/01/23 00:25:56;;;;;;;5.47;3.20;;;2.00;94.10;;;;;;5007672;28;20487;-73
2021/01/23 00:28:22;;;;;;;4.90;2.73;;;2.00;94.00;;;;;;5027615;28;20046;-73
2021/01/23 00:30:50;;;;;;;6.17;2.57;;;2.00;94.00;;;;;;4998627;28;20048;-73
2021/01/23 00:33:16;;;;;;;6.13;2.60;;;2.00;94.00;;;;;;5015876;28;20030;-73
2021/01/23 00:35:43;;;;;;;5.07;3.03;;;2.00;94.00;;;;;;5007898;28;20054;-73
2021/01/23 00:38:09;;;;;;;6.70;2.40;;;2.00;94.00;;;;;;4993849;28;20127;-73
2021/01/23 00:40:36;;;;;;;6.20;3.03;;;2.00;94.00;;;;;;5030099;28;20072;-73
2021/01/23 00:43:02;;;;;;;5.57;2.67;;;1.90;94.00;;;;;;5018220;28;20055;-73
2021/01/23 00:45:29;;;;;;;5.27;2.60;;;1.90;94.00;;;;;;5034571;28;20381;-73
2021/01/23 00:47:56;;;;;;;5.03;2.60;;;1.90;94.00;;;;;;5030568;28;20762;-73
2021/01/23 00:50:22;;;;;;;4.37;2.47;;;1.90;94.00;;;;;;5028915;28;20042;-72
2021/01/23 00:52:49;;;;;;;4.43;2.10;;;1.90;94.00;;;;;;5020915;28;20041;-74
2021/01/23 00:55:16;;;;;;;4.57;2.40;;;1.90;94.00;;;;;;4990480;28;20046;-73
2021/01/23 00:57:42;;;;;;;4.63;2.47;;;1.90;94.00;;;;;;5028210;28;20037;-73
2021/01/23 01:00:13;;;;;;;8.80;3.60;;;2.00;94.00;;;;;;4985682;28;20041;-73
2021/01/23 01:02:43;;;;;;;5.30;2.90;;;1.90;94.00;;;;;;5031460;28;20042;-73
2021/01/23 01:05:20;;;;;;;6.57;3.03;;;1.90;94.00;;;;;;5031656;28;20128;-73
2021/01/23 01:07:46;;;;;;;6.73;3.33;;;1.90;94.00;;;;;;5019158;28;20046;-73
2021/01/23 01:10:13;;;;;;;6.13;3.37;;;1.90;94.00;;;;;;5002742;28;20124;-73
2021/01/23 01:12:40;;;;;;;7.50;3.13;;;1.90;94.00;;;;;;5033525;28;20033;-72
2021/01/23 01:15:07;;;;;;;4.40;2.60;;;2.00;94.10;;;;;;5030751;28;20041;-73
2021/01/23 01:17:33;;;;;;;6.83;2.70;;;2.00;94.00;;;;;;5006405;28;20553;-72
2021/01/23 01:20:00;;;;;;;7.13;2.87;;;2.00;94.00;;;;;;5011906;28;20044;-73
2021/01/23 01:22:28;;;;;;;5.93;2.90;;;2.00;94.00;;;;;;5020150;28;20042;-73
2021/01/23 01:24:56;;;;;;;5.73;2.60;;;2.00;94.00;;;;;;5018074;28;20041;-73
2021/01/23 01:27:22;;;;;;;5.80;2.43;;;2.00;94.00;;;;;;5025743;28;20141;-73
2021/01/23 01:29:49;;;;;;;5.87;2.77;;;2.00;94.00;;;;;;5011035;28;20400;-73
2021/01/23 01:32:16;;;;;;;4.90;2.90;;;2.00;94.00;;;;;;5007840;28;20045;-73
2021/01/23 01:34:43;;;;;;;4.90;2.37;;;2.00;94.00;;;;;;5013955;28;20087;-73
2021/01/23 01:37:10;;;;;;;5.43;2.60;;;1.90;94.00;;;;;;5042501;28;20045;-73
2021/01/23 01:39:36;;;;;;;5.00;2.43;;;1.90;94.00;;;;;;5031342;28;20043;-73
2021/01/23 01:42:05;;;;;;;4.13;2.30;;;1.90;94.00;;;;;;5031405;28;20041;-73
2021/01/23 01:44:32;;;;;;;5.03;2.00;;;1.90;94.00;;;;;;5029628;28;20072;-73
2021/01/23 01:47:00;;;;;;;6.33;2.53;;;1.90;94.10;;;;;;5020240;28;20034;-73
2021/01/23 01:49:29;;;;;;;4.83;2.43;;;1.90;94.00;;;;;;5044051;28;20030;-73
2021/01/23 01:51:56;;;;;;;4.33;2.30;;;1.90;94.00;;;;;;5024213;28;20034;-73
2021/01/23 01:54:24;;;;;;;5.53;2.50;;;1.90;94.00;;;;;;5026590;28;20140;-73
2021/01/23 01:56:54;;;;;;;5.60;2.67;;;1.90;94.00;;;;;;5031614;28;20076;-72
2021/01/23 01:59:20;;;;;;;4.93;2.07;;;1.90;94.00;;;;;;5031207;28;20049;-73
2021/01/23 02:01:50;;;;;;;4.37;2.50;;;1.90;94.00;;;;;;5005602;28;20100;-73
2021/01/23 02:04:43;;;;;;;5.20;2.57;;;1.80;94.00;;;;;;5005691;28;20045;-73
2021/01/23 02:07:28;;;;;;;4.80;1.92;;;1.80;94.10;;;;;;5023253;28;20448;-73
2021/01/23 02:10:25;;;;;;;10.50;2.57;;;1.80;94.10;;;;;;5030813;28;20041;-73
2021/01/23 02:13:22;;;;;;;5.43;2.10;;;1.80;94.00;;;;;;5025584;28;20057;-73
2021/01/23 02:16:04;;;;;;;6.03;2.87;;;1.80;94.10;;;;;;5028804;28;20041;-73
2021/01/23 02:18:47;;;;;;;4.07;1.63;;;1.80;94.10;;;;;;5029916;28;20052;-73
2021/01/23 02:21:25;;;;;;;5.57;2.80;;;1.90;94.10;;;;;;5030158;28;20111;-73
2021/01/23 02:23:53;;;;;;;4.70;2.23;;;1.90;94.10;;;;;;5021735;28;20041;-73
2021/01/23 02:26:30;;;;;;;5.33;1.90;;;1.90;94.10;;;;;;5027091;28;20113;-73
2021/01/23 02:29:03;;;;;;;4.47;2.23;;;1.90;94.10;;;;;;5031401;28;20067;-73
2021/01/23 02:31:50;;;;;;;4.80;2.20;;;1.90;94.10;;;;;;5025327;28;20490;-73
2021/01/23 02:34:21;;;;;;;2.90;1.60;;;1.90;94.10;;;;;;5013304;28;20099;-73
2021/01/23 02:36:49;;;;;;;3.37;1.97;;;1.90;94.10;;;;;;5029182;28;20060;-73
2021/01/23 02:39:18;;;;;;;4.53;1.93;;;1.90;94.10;;;;;;5030655;28;20071;-73
2021/01/23 02:41:46;;;;;;;3.33;1.93;;;1.90;94.10;;;;;;5021329;28;20088;-73
2021/01/23 02:44:13;;;;;;;5.87;2.10;;;1.90;94.10;;;;;;5024228;28;20092;-73
2021/01/23 02:46:40;;;;;;;4.20;2.07;;;2.00;94.10;;;;;;5006355;28;20056;-73
2021/01/23 02:49:07;;;;;;;4.90;2.10;;;2.00;94.10;;;;;;5029985;28;20034;-73
2021/01/23 02:52:05;;;;;;;4.33;2.17;;;2.00;94.10;;;;;;5017491;28;20046;-73
2021/01/23 02:54:50;;;;;;;5.13;2.30;;;2.10;94.00;;;;;;5014779;28;20041;-73
2021/01/23 02:57:19;;;;;;;4.57;2.20;;;2.20;94.00;;;;;;5028198;28;20037;-73
2021/01/23 02:59:49;;;;;;;5.87;2.73;;;2.20;94.00;;;;;;5028607;28;20064;-73
2021/01/23 03:02:18;;;;;;;5.30;2.20;;;2.20;94.00;;;;;;5009954;28;20038;-73
2021/01/23 03:04:45;;;;;;;5.90;2.47;;;2.20;94.20;;;;;;5034737;28;20038;-73
2021/01/23 03:07:16;;;;;;;4.23;2.17;;;2.20;94.00;;;;;;5004060;28;20041;-73
2021/01/23 03:09:44;;;;;;;6.57;2.73;;;2.20;94.00;;;;;;5027550;28;20076;-73
2021/01/23 03:12:11;;;;;;;3.90;2.57;;;2.20;94.00;;;;;;5022886;28;20497;-73
2021/01/23 03:14:38;;;;;;;4.13;2.10;;;2.30;94.00;;;;;;5032758;28;20041;-73
2021/01/23 03:17:04;;;;;;;5.30;2.80;;;2.30;94.30;;;;;;5032816;28;20038;-73
2021/01/23 03:19:31;;;;;;;5.70;2.90;;;2.40;94.00;;;;;;5015880;28;20054;-73
2021/01/23 03:21:58;;;;;;;5.13;2.30;;;2.40;94.00;;;;;;5033854;28;20056;-73
2021/01/23 03:24:25;;;;;;;5.27;2.60;;;2.50;94.00;;;;;;5010074;28;20046;-73
2021/01/23 03:26:51;;;;;;;4.33;2.63;;;2.50;93.90;;;;;;5016163;28;20088;-73
2021/01/23 03:29:19;;;;;;;4.43;2.53;;;2.60;93.90;;;;;;5028702;28;20125;-73
2021/01/23 03:31:50;;;;;;;4.03;2.30;;;2.60;93.90;;;;;;5025594;28;20045;-73
2021/01/23 03:34:17;;;;;;;4.47;2.17;;;2.70;93.90;;;;;;5017507;28;20049;-73
2021/01/23 03:36:44;;;;;;;4.23;2.20;;;2.70;93.90;;;;;;5028909;28;20041;-73
2021/01/23 03:39:10;;;;;;;4.83;2.37;;;2.80;93.90;;;;;;5030437;28;20058;-73
2021/01/23 03:41:37;;;;;;;3.23;2.00;;;2.80;93.90;;;;;;5023433;28;20042;-73
2021/01/23 03:44:04;;;;;;;5.70;3.10;;;2.80;93.80;;;;;;5031225;28;20041;-73
2021/01/23 03:46:32;;;;;;;3.97;2.43;;;2.90;93.80;;;;;;5014061;28;20387;-73
2021/01/23 03:49:01;;;;;;;4.13;2.43;;;2.90;93.80;;;;;;5016293;28;20041;-73
2021/01/23 03:51:29;;;;;;;4.23;2.60;;;2.90;93.80;;;;;;5032986;28;20049;-73
2021/01/23 03:53:55;;;;;;;4.93;2.90;;;2.90;93.70;;;;;;5031427;28;20045;-73
2021/01/23 03:56:22;;;;;;;6.50;3.03;;;2.90;93.70;;;;;;5012867;28;20117;-73
2021/01/23 03:58:48;;;;;;;5.70;3.03;;;3.00;93.80;;;;;;5015494;28;20049;-73
2021/01/23 04:01:17;;;;;;;6.87;2.50;;;3.00;93.80;;;;;;5041696;28;20052;-73
2021/01/23 04:03:44;;;;;;;4.63;2.70;;;3.10;93.70;;;;;;5014136;28;20054;-73
2021/01/23 04:06:10;;;;;;;5.13;3.07;;;3.10;93.70;;;;;;5029307;28;20042;-73
2021/01/23 04:08:36;;;;;;;8.10;4.60;;;3.20;93.70;;;;;;5014948;28;20046;-73
2021/01/23 04:11:03;;;;;;;7.53;4.03;;;3.20;93.70;;;;;;5004445;28;20088;-73
2021/01/23 04:13:30;;;;;;;8.93;5.57;;;3.20;93.70;;;;;;5023305;28;20034;-73
2021/01/23 04:15:56;;;;;;;9.90;5.47;;;3.30;93.70;;;;;;5016775;28;20393;-73
2021/01/23 04:18:23;;;;;;;11.10;6.43;;;3.30;93.60;;;;;;5022238;28;20041;-73
2021/01/23 04:20:49;;;;;;;10.83;5.63;;;3.40;93.60;;;;;;4989015;28;20541;-73
2021/01/23 04:23:16;;;;;;;11.83;6.30;;;3.40;93.60;;;;;;5025734;28;20108;-73
2021/01/23 04:25:43;;;;;;;9.37;5.90;;;3.40;93.60;;;;;;5033975;28;20038;-73
2021/01/23 04:28:09;;;;;;;8.73;5.70;;;3.40;93.60;;;;;;5027028;28;20057;-73
2021/01/23 04:30:35;;;;;;;11.17;6.23;;;3.40;93.60;;;;;;5032633;28;20501;-73
2021/01/23 04:33:03;;;;;;;9.80;5.67;;;3.40;93.60;;;;;;5031359;28;20037;-73
2021/01/23 04:35:29;;;;;;;11.23;6.20;;;3.40;93.60;;;;;;4988608;28;20077;-73
2021/01/23 04:37:56;;;;;;;12.70;6.67;;;3.50;93.70;;;;;;5023994;28;20038;-73
2021/01/23 04:40:23;;;;;;;9.07;5.33;;;3.50;93.70;;;;;;5011883;28;20050;-73
2021/01/23 04:42:49;;;;;;;11.10;6.73;;;3.40;93.70;;;;;;5032999;28;20450;-73
2021/01/23 04:45:16;;;;;;;12.27;7.07;;;3.50;93.80;;;;;;5026898;28;20108;-73
2021/01/23 04:47:43;;;;;;;12.37;6.93;;;3.50;93.70;;;;;;5000050;28;20052;-73
2021/01/23 04:50:10;;;;;;;10.03;5.80;;;3.50;93.70;;;;;;5009421;28;20091;-73
2021/01/23 04:52:39;;;;;;;9.07;5.80;;;3.50;93.70;;;;;;5031886;28;20136;-73
2021/01/23 04:55:08;;;;;;;10.93;5.77;;;3.50;93.80;;;;;;5006364;28;20513;-73
2021/01/23 04:57:36;;;;;;;8.40;5.07;;;3.50;93.80;;;;;;5033333;28;20033;-73
2021/01/23 05:00:05;;;;;;;10.40;6.07;;;3.50;93.80;;;;;;5012831;28;20038;-73
2021/01/23 05:02:33;;;;;;;11.73;6.27;;;3.50;93.80;;;;;;5025584;28;20506;-73
2021/01/23 05:05:04;;;;;;;10.87;5.43;;;3.50;93.80;;;;;;5022580;28;20043;-73
2021/01/23 05:07:35;;;;;;;11.70;5.73;;;3.50;93.80;;;;;;5024163;28;20049;-74
2021/01/23 05:10:23;;;;;;;7.78;4.68;;;3.50;93.80;;;;;;5030718;28;20402;-73
2021/01/23 05:12:51;;;;;;;11.73;5.90;;;3.50;93.90;;;;;;5031523;28;20056;-73
2021/01/23 05:15:26;;;;;;;8.70;5.17;;;3.50;93.90;;;;;;5022238;28;20066;-73
2021/01/23 05:17:54;;;;;;;8.87;5.47;;;3.50;93.90;;;;;;5023831;28;20049;-73
2021/01/23 05:20:40;;;;;;;12.03;5.40;;;3.50;93.90;;;;;;5031845;28;20096;-73
2021/01/23 05:23:18;;;;;;;9.87;4.97;;;3.50;93.90;;;;;;5031761;28;20033;-73
2021/01/23 05:25:49;;;;;;;9.97;4.90;;;3.50;93.90;;;;;;5029614;28;20033;-73
2021/01/23 05:28:35;;;;;;;8.67;4.40;;;3.40;93.90;;;;;;5027704;28;20053;-73
2021/01/23 05:31:07;;;;;;;8.40;5.13;;;3.40;93.90;;;;;;5033149;28;20124;-73
2021/01/23 05:33:35;;;;;;;12.60;6.40;;;3.30;94.00;;;;;;5026402;28;20050;-74
2021/01/23 05:36:06;;;;;;;9.80;5.83;;;3.30;94.10;;;;;;5013958;28;20561;-73
2021/01/23 05:38:38;;;;;;;9.67;5.17;;;3.40;94.10;;;;;;5031604;28;20054;-73
2021/01/23 05:41:04;;;;;;;12.70;6.17;;;3.40;94.00;;;;;;5024141;28;20045;-73
2021/01/23 05:43:51;;;;;;;9.53;5.90;;;3.40;94.00;;;;;;5015851;28;20076;-76
2021/01/23 05:46:26;;;;;;;11.93;5.97;;;3.40;94.10;;;;;;5033007;28;20040;-76
2021/01/23 05:48:54;;;;;;;13.20;6.93;;;3.40;94.10;;;;;;5032574;28;20404;-76
2021/01/23 05:51:22;;;;;;;11.67;6.00;;;3.40;94.10;;;;;;5033023;28;20043;-77
2021/01/23 05:53:49;;;;;;;12.33;6.43;;;3.50;94.10;;;;;;5032675;28;20553;-77
2021/01/23 05:56:16;;;;;;;11.40;6.43;;;3.50;94.10;;;;;;5015773;28;20481;-77
2021/01/23 05:58:44;;;;;;;11.60;6.50;;;3.50;94.10;;;;;;5033722;28;20496;-77
2021/01/23 06:01:15;;;;;;;11.27;6.60;;;3.50;94.10;;;;;;5032355;28;20047;-77
2021/01/23 06:03:44;;;;;;;12.43;6.95;;;3.50;94.10;;;;;;4990313;28;20064;-76
2021/01/23 06:06:11;;;;;;;9.90;6.07;;;3.50;94.10;;;;;;5033339;28;20029;-77
2021/01/23 06:08:42;;;;;;;9.77;5.47;;;3.50;94.20;;;;;;5033588;28;20077;-77
2021/01/23 06:11:18;;;;;;;12.50;6.63;;;3.60;94.20;;;;;;5032104;28;20041;-76
2021/01/23 06:13:48;;;;;;;10.77;6.63;;;3.60;94.10;;;;;;5019884;28;20073;-76
2021/01/23 06:16:33;;;;;;;14.00;6.63;;;3.60;94.10;;;;;;5026301;28;20064;-75
2021/01/23 06:19:26;;;;;;;11.30;6.40;;;3.70;94.10;;;;;;5030419;28;20053;-75
2021/01/23 06:21:53;;;;;;;14.23;8.00;;;3.70;94.10;;;;;;5031993;28;20148;-75
2021/01/23 06:24:46;;;;;;;12.17;6.87;;;3.60;94.10;;;;;;5015555;28;20056;-76
2021/01/23 06:27:12;;;;;;;10.10;6.00;;;3.60;94.10;;;;;;5031450;28;20030;-75
2021/01/23 06:29:44;;;;;;;13.27;7.47;;;3.50;94.10;;;;;;5008296;28;20046;-75
2021/01/23 06:32:19;;;;;;;11.83;6.80;;;3.50;94.20;;;;;;5030480;28;20041;-77
2021/01/23 06:34:46;;;;;;;10.13;5.77;;;3.60;94.20;;;;;;5015338;28;20456;-77
2021/01/23 06:37:22;;;;;;;10.83;5.90;;;3.60;94.20;;;;;;5031194;28;20440;-76
2021/01/23 06:40:14;;;;;;;11.93;6.47;;;3.60;94.20;;;;;;5031914;28;20088;-77
2021/01/23 06:42:49;;;;;;;10.60;6.10;;;3.60;94.20;;;;;;5020436;28;20029;-76
2021/01/23 06:45:25;;;;;;;16.47;8.13;;;3.60;94.10;;;;;;5031790;28;20060;-77
2021/01/23 06:47:56;;;;;;;11.10;6.53;;;3.70;94.20;;;;;;5019837;28;20045;-77
2021/01/23 06:50:36;;;;;;;14.03;7.07;;;3.70;94.10;;;;;;5032647;28;20061;-75
2021/01/23 06:53:04;;;;;;;9.97;5.77;;;3.70;94.10;;;;;;5031541;28;20481;-75
2021/01/23 06:55:49;;;;;;;13.10;7.43;;;3.80;94.10;;;;;;5031528;28;20053;-76
2021/01/23 06:58:21;;;;;;;12.47;6.83;;;3.80;94.10;;;;;;5030494;28;20124;-76
2021/01/23 07:00:56;;;;;;;10.25;6.18;;;3.80;94.10;;;;;;5023519;28;20041;-76
2021/01/23 07:03:23;;;;;;;14.83;8.07;;;3.80;94.10;;;;;;5032412;28;20531;-75
2021/01/23 07:05:52;;;;;;;13.47;7.60;;;3.80;94.00;;;;;;5014892;28;20517;-75
2021/01/23 07:08:20;;;;;;;11.87;7.07;;;3.80;94.00;;;;;;5027783;28;20050;-76
2021/01/23 07:11:09;;;;;;;17.70;9.20;;;3.90;94.10;;;;;;5031539;28;20453;-75
2021/01/23 07:13:37;;;;;;;13.53;7.40;;;3.90;94.00;;;;;;5031261;28;20037;-76
2021/01/23 07:16:04;;;;;;;13.43;8.10;;;3.90;94.00;;;;;;5031628;28;20053;-76
2021/01/23 07:18:31;;;;;;;13.10;7.77;;;3.90;94.00;;;;;;5021191;28;20054;-72
2021/01/23 07:20:59;;;;;;;15.93;8.07;;;3.90;94.00;;;;;;5030277;28;20076;-73
2021/01/23 07:23:26;;;;;;;15.33;8.20;;;3.90;94.00;;;;;;5002534;28;20037;-73
2021/01/23 07:25:58;;;;;;;15.27;8.87;;;4.00;94.00;;;;;;5007855;28;20141;-73
2021/01/23 07:28:25;;;;;;;15.00;8.05;;;4.00;94.00;;;;;;5023223;28;20042;-73
2021/01/23 07:30:52;;;;;;;19.33;9.43;;;4.00;94.00;;;;;;4991345;28;20076;-73
2021/01/23 07:33:31;;;;;;;17.80;9.13;;;4.00;94.00;;;;;;5000959;28;20478;-72
2021/01/23 07:35:58;;;;;;;17.93;9.33;;;4.00;93.90;;;;;;5018377;28;20053;-73
2021/01/23 07:38:25;;;;;;;15.10;8.87;;;4.00;93.90;;;;;;5020128;28;20046;-73
2021/01/23 07:40:55;;;;;;;20.30;9.93;;;3.90;93.90;;;;;;5018057;28;20123;-73
2021/01/23 07:43:23;;;;;;;17.13;9.03;;;3.90;93.90;;;;;;5030012;28;20045;-73
2021/01/23 07:45:54;;;;;;;15.40;8.80;;;3.90;94.00;;;;;;5021529;28;20037;-76
2021/01/23 07:48:20;;;;;;;18.40;8.50;;;3.90;94.00;;;;;;5033840;28;20045;-77
2021/01/23 07:50:48;;;;;;;16.73;8.80;;;3.90;94.00;;;;;;5017940;28;20034;-77
2021/01/23 07:53:20;;;;;;;15.93;8.83;;;3.90;94.00;;;;;;5029208;28;20064;-76
2021/01/23 07:55:47;;;;;;;16.38;8.70;;;3.90;94.00;;;;;;5034921;28;20045;-76
2021/01/23 07:58:15;;;;;;;15.03;8.67;;;3.80;94.00;;;;;;5034898;28;20575;-76
2021/01/23 08:00:43;;;;;;;15.77;8.00;;;3.80;94.00;;;;;;5026108;28;20064;-76
2021/01/23 08:03:10;;;;;;;13.43;6.37;;;3.70;94.10;;;;;;5017908;28;20132;-76
2021/01/23 08:05:50;;;;;;;13.13;6.67;;;3.60;94.10;;;;;;5010915;28;20038;-77
2021/01/23 08:08:29;;;;;;;12.57;6.90;;;3.60;94.20;;;;;;5033539;28;20489;-76
2021/01/23 08:10:57;;;;;;;11.70;6.57;;;3.60;94.20;;;;;;5017788;28;20053;-77
2021/01/23 08:13:26;;;;;;;13.90;6.60;;;3.60;94.30;;;;;;5034540;28;20037;-77
2021/01/23 08:16:09;;;;;;;10.13;6.33;;;3.60;94.30;;;;;;5014933;28;20050;-76
2021/01/23 08:18:36;;;;;;;16.10;8.63;;;3.70;94.30;;;;;;5034384;28;20043;-76
2021/01/23 08:21:14;;;;;;;13.13;7.40;;;3.70;94.30;;;;;;5034164;28;20033;-76
2021/01/23 08:23:50;;;;;;;12.50;7.33;;;3.80;94.30;;;;;;5033753;28;20044;-76
2021/01/23 08:26:41;;;;;;;13.07;8.07;;;3.80;94.20;;;;;;5019311;28;20045;-77
2021/01/23 08:29:17;;;;;;;15.20;8.10;;;3.90;94.20;;;;;;5015063;28;20112;-76
2021/01/23 08:32:00;;;;;;;16.97;8.70;;;4.00;94.10;;;;;;5030146;28;20037;-76
2021/01/23 08:34:26;;;;;;;14.57;8.23;;;4.10;94.10;;;;;;5034494;28;20462;-76
2021/01/23 08:36:53;;;;;;;14.27;7.97;;;4.00;94.10;;;;;;5034379;28;20044;-76
2021/01/23 08:39:19;;;;;;;14.53;7.77;;;4.10;94.00;;;;;;5032131;28;20033;-73
2021/01/23 08:41:46;;;;;;;14.80;7.87;;;4.00;94.00;;;;;;5032283;28;20114;-77
2021/01/23 08:44:13;;;;;;;12.53;7.23;;;4.00;94.30;;;;;;5014063;28;20050;-77
2021/01/23 08:46:40;;;;;;;14.37;8.67;;;3.90;94.00;;;;;;5025746;28;20125;-78
2021/01/23 08:49:06;;;;;;;14.43;7.57;;;3.90;94.10;;;;;;5033603;28;20037;-74
2021/01/23 08:51:33;;;;;;;12.03;7.13;;;3.90;94.10;;;;;;5032699;28;20041;-74
2021/01/23 08:54:00;;;;;;;12.07;6.33;;;3.90;94.10;;;;;;5017253;28;20403;-78
2021/01/23 08:56:26;;;;;;;12.87;6.57;;;3.90;94.20;;;;;;5013780;28;20046;-78
2021/01/23 08:58:53;;;;;;;10.37;6.70;;;3.90;94.20;;;;;;5016591;28;20041;-77
2021/01/23 09:01:19;;;;;;;10.97;6.37;;;3.90;94.10;;;;;;5000626;28;20065;-77
2021/01/23 09:03:46;;;;;;;11.50;6.43;;;3.90;94.20;;;;;;5000683;28;20042;-77
2021/01/23 09:06:12;;;;;;;12.13;6.50;;;3.90;94.20;;;;;;5012870;28;20080;-76
2021/01/23 09:08:39;;;;;;;11.63;6.10;;;3.90;94.20;;;;;;5015902;28;20091;-76
2021/01/23 09:11:05;;;;;;;10.07;5.17;;;3.90;94.10;;;;;;5031042;28;20049;-76
2021/01/23 09:13:32;;;;;;;10.43;6.03;;;3.90;94.20;;;;;;5013085;28;20489;-75
2021/01/23 09:15:58;;;;;;;11.20;5.80;;;3.90;94.20;;;;;;5013124;28;20096;-75
2021/01/23 09:18:25;;;;;;;12.77;6.47;;;3.90;94.20;;;;;;5032234;28;20041;-75
2021/01/23 09:20:55;;;;;;;11.73;6.50;;;3.90;94.20;;;;;;5046724;28;20087;-76
2021/01/23 09:23:22;;;;;;;11.73;7.03;;;3.90;94.40;;;;;;5021568;28;20065;-76
2021/01/23 09:25:48;;;;;;;11.53;6.03;;;3.90;94.20;;;;;;5023694;28;20049;-78
2021/01/23 09:28:15;;;;;;;8.63;5.37;;;3.90;94.10;;;;;;5011059;28;20041;-78
2021/01/23 09:30:42;;;;;;;10.80;6.40;;;3.90;94.10;;;;;;5016906;28;20456;-78
2021/01/23 09:33:08;;;;;;;8.87;5.67;;;4.00;94.20;;;;;;5034173;28;20405;-78
2021/01/23 09:35:38;;;;;;;11.47;6.20;;;4.00;94.20;;;;;;5032695;28;20080;-78
2021/01/23 09:38:05;;;;;;;13.17;6.57;;;4.00;94.10;;;;;;5015920;28;20080;-78
2021/01/23 09:40:31;;;;;;;14.87;7.97;;;4.10;94.10;;;;;;5016380;28;20038;-78
2021/01/23 09:42:59;;;;;;;9.70;5.97;;;4.10;94.10;;;;;;5033862;28;20455;-78
2021/01/23 09:45:25;;;;;;;11.73;6.97;;;4.10;94.00;;;;;;5014689;28;20049;-76
2021/01/23 09:47:52;;;;;;;9.77;5.73;;;4.20;94.10;;;;;;5026048;28;20053;-75
2021/01/23 09:50:22;;;;;;;9.57;5.50;;;4.20;94.00;;;;;;5029918;28;20095;-75
2021/01/23 09:52:48;;;;;;;10.37;5.57;;;4.20;94.00;;;;;;5029846;28;20092;-75
2021/01/23 09:55:16;;;;;;;11.07;5.30;;;4.20;94.00;;;;;;5029125;28;20115;-75
2021/01/23 09:57:43;;;;;;;12.33;6.07;;;4.30;94.00;;;;;;4999052;28;20045;-74
2021/01/23 10:00:11;;;;;;;11.23;6.17;;;4.30;94.00;;;;;;5031301;28;20045;-75
2021/01/23 10:02:40;;;;;;;12.13;6.03;;;4.40;94.00;;;;;;5032809;28;20052;-75
2021/01/23 10:05:11;;;;;;;11.90;6.13;;;4.40;93.90;;;;;;5032249;28;20037;-75
2021/01/23 10:07:40;;;;;;;11.48;5.65;;;4.40;93.90;;;;;;5014970;28;20067;-76
2021/01/23 10:10:07;;;;;;;10.57;6.07;;;4.50;93.90;;;;;;5031600;28;20072;-76
2021/01/23 10:12:44;;;;;;;10.57;6.03;;;4.50;93.80;;;;;;5023210;28;20493;-75
2021/01/23 10:15:10;;;;;;;9.68;5.55;;;4.50;93.70;;;;;;4999164;28;20041;-76
2021/01/23 10:17:37;;;;;;;9.57;5.73;;;4.60;93.70;;;;;;5014832;28;20034;-75
2021/01/23 10:20:05;;;;;;;12.07;5.93;;;4.60;93.70;;;;;;5031935;28;20045;-74
2021/01/23 10:22:33;;;;;;;7.47;4.53;;;4.70;93.70;;;;;;5032388;28;20053;-76
2021/01/23 10:24:59;;;;;;;11.13;4.93;;;4.70;93.70;;;;;;5024050;28;20092;-75
2021/01/23 10:27:31;;;;;;;11.03;5.83;;;4.80;93.90;;;;;;4989574;28;20100;-76
2021/01/23 10:29:58;;;;;;;8.57;5.00;;;4.90;93.60;;;;;;5029435;28;20037;-75
2021/01/23 10:32:25;;;;;;;9.87;5.00;;;5.00;93.50;;;;;;5032904;28;20730;-77
2021/01/23 10:34:51;;;;;;;7.67;4.43;;;5.10;93.50;;;;;;5023499;28;20053;-76
2021/01/23 10:37:18;;;;;;;10.13;5.53;;;5.30;93.40;;;;;;5009294;28;20742;-76
2021/01/23 10:39:45;;;;;;;11.00;5.23;;;5.40;93.20;;;;;;5017776;28;20038;-76
2021/01/23 10:42:11;;;;;;;7.70;5.07;;;5.60;93.10;;;;;;5018111;28;20044;-76
2021/01/23 10:44:44;;;;;;;11.38;6.25;;;5.70;92.90;;;;;;5028766;28;20041;-77
2021/01/23 10:47:11;;;;;;;9.50;5.00;;;5.90;92.70;;;;;;5010885;28;20490;-76
2021/01/23 10:49:38;;;;;;;9.67;5.63;;;6.00;92.50;;;;;;5029609;28;20045;-76
2021/01/23 10:52:05;;;;;;;12.63;6.10;;;6.00;92.20;;;;;;5031604;28;20068;-76
2021/01/23 10:54:34;;;;;;;9.73;6.20;;;6.10;92.00;;;;;;5014360;28;20727;-76
2021/01/23 10:57:02;;;;;;;9.03;5.33;;;6.10;91.70;;;;;;5019034;28;20055;-75
2021/01/23 10:59:29;;;;;;;7.27;5.10;;;6.10;91.90;;;;;;5019738;28;20049;-76
2021/01/23 11:01:56;;;;;;;8.63;4.30;;;6.20;91.80;;;;;;5033432;28;20049;-76
2021/01/23 11:04:23;;;;;;;8.43;4.17;;;6.20;91.90;;;;;;5004419;28;20425;-76
2021/01/23 11:06:50;;;;;;;6.03;4.00;;;6.20;92.00;;;;;;5020601;28;20052;-76
2021/01/23 11:09:16;;;;;;;6.43;3.63;;;6.20;92.10;;;;;;5023628;28;20046;-77
2021/01/23 11:11:42;;;;;;;9.27;4.53;;;6.20;91.90;;;;;;5020481;28;20112;-76
2021/01/23 11:14:09;;;;;;;7.63;3.90;;;6.20;91.50;;;;;;5029921;28;20073;-77
2021/01/23 11:16:35;;;;;;;6.43;4.23;;;6.20;91.60;;;;;;5024486;28;20100;-76
2021/01/23 11:19:02;;;;;;;5.80;3.87;;;6.30;91.40;;;;;;5004269;28;20048;-76
2021/01/23 11:21:29;;;;;;;7.13;4.07;;;6.30;91.30;;;;;;5027056;28;20080;-75
2021/01/23 11:23:56;;;;;;;5.63;2.97;;;6.30;91.30;;;;;;5034141;28;20099;-76
2021/01/23 11:26:23;;;;;;;6.50;3.37;;;6.40;91.40;;;;;;5029273;28;20077;-75
2021/01/23 11:28:49;;;;;;;6.23;3.33;;;6.40;91.40;;;;;;5010913;28;20040;-75
2021/01/23 11:31:16;;;;;;;7.20;3.43;;;6.50;91.20;;;;;;5036203;28;20092;-75
2021/01/23 11:33:43;;;;;;;5.43;2.90;;;6.50;91.30;;;;;;5034823;28;20041;-75
2021/01/23 11:36:09;;;;;;;6.77;3.60;;;6.50;91.40;;;;;;5035752;28;20057;-75
2021/01/23 11:38:36;;;;;;;7.00;2.90;;;6.50;91.30;;;;;;5035858;28;20041;-78
2021/01/23 11:41:02;;;;;;;5.33;2.83;;;6.40;91.10;;;;;;5020353;28;20389;-75
2021/01/23 11:43:29;;;;;;;5.90;3.50;;;6.40;91.20;;;;;;5025662;28;20068;-75
2021/01/23 11:45:56;;;;;;;6.73;3.23;;;6.40;91.10;;;;;;5034567;28;20037;-75
2021/01/23 11:48:22;;;;;;;6.53;2.80;;;6.40;90.90;;;;;;5028785;28;20056;-76
2021/01/23 11:50:49;;;;;;;5.47;3.60;;;6.30;91.30;;;;;;5014429;28;20041;-75
2021/01/23 11:53:16;;;;;;;6.20;3.67;;;6.30;90.70;;;;;;5032570;28;20061;-74
2021/01/23 11:55:42;;;;;;;6.20;3.43;;;6.20;90.70;;;;;;5034086;28;20045;-75
2021/01/23 11:58:09;;;;;;;5.87;3.00;;;6.20;91.00;;;;;;5035355;28;20430;-76
2021/01/23 12:00:35;;;;;;;4.80;2.43;;;6.10;91.00;;;;;;5014759;28;20074;-75
2021/01/23 12:03:03;;;;;;;5.10;2.40;;;6.10;91.10;;;;;;5014671;28;20463;-76
2021/01/23 12:05:32;;;;;;;5.40;3.10;;;6.00;91.20;;;;;;5033519;28;20041;-76
2021/01/23 12:07:58;;;;;;;7.43;3.13;;;6.00;91.20;;;;;;5034321;28;20042;-75
2021/01/23 12:10:26;;;;;;;4.57;2.27;;;5.90;91.10;;;;;;5033155;28;20033;-76
2021/01/23 12:12:52;;;;;;;13.33;2.77;;;5.90;91.20;;;;;;5033801;28;20045;-76
2021/01/23 12:15:19;;;;;;;5.60;3.10;;;5.90;91.20;;;;;;5033786;28;20113;-76
2021/01/23 12:17:46;;;;;;;4.57;2.70;;;5.90;91.10;;;;;;5033567;28;20038;-76
2021/01/23 12:20:13;;;;;;;5.20;2.70;;;5.80;91.50;;;;;;5033678;28;20109;-76
2021/01/23 12:22:39;;;;;;;4.17;2.53;;;5.80;91.30;;;;;;5014377;28;20049;-76
2021/01/23 12:25:08;;;;;;;4.37;2.20;;;5.80;91.30;;;;;;5031495;28;20516;-76
2021/01/23 12:27:36;;;;;;;5.63;2.17;;;5.80;91.20;;;;;;5033965;28;20041;-77
2021/01/23 12:30:05;;;;;;;6.37;3.23;;;5.80;91.30;;;;;;5033919;28;20041;-77
2021/01/23 12:32:32;;;;;;;7.90;3.13;;;5.80;91.00;;;;;;5033779;28;20064;-76
2021/01/23 12:34:59;;;;;;;5.03;2.90;;;5.80;91.00;;;;;;5032796;28;20049;-76
2021/01/23 12:37:26;;;;;;;5.30;3.20;;;5.80;91.00;;;;;;5033695;28;20041;-76
2021/01/23 12:39:52;;;;;;;4.30;2.13;;;5.80;91.00;;;;;;5034878;28;20099;-76
2021/01/23 12:42:19;;;;;;;3.30;1.87;;;5.90;91.10;;;;;;5033506;28;20091;-77
2021/01/23 12:44:45;;;;;;;5.57;2.53;;;5.90;91.20;;;;;;5033174;28;20045;-77
2021/01/23 12:47:12;;;;;;;5.43;2.77;;;6.00;91.20;;;;;;5021853;28;20124;-77
2021/01/23 12:49:40;;;;;;;4.60;2.00;;;6.10;91.20;;;;;;5033616;28;20397;-77
2021/01/23 12:52:06;;;;;;;3.67;2.30;;;6.10;91.10;;;;;;5033356;28;20069;-77
2021/01/23 12:54:33;;;;;;;6.53;2.73;;;6.20;91.10;;;;;;5034530;28;20367;-78
2021/01/23 12:57:02;;;;;;;6.37;3.20;;;6.20;91.00;;;;;;5013788;28;20133;-77
2021/01/23 12:59:29;;;;;;;6.50;3.33;;;6.30;90.80;;;;;;5030100;28;20124;-77
2021/01/23 13:01:56;;;;;;;6.83;4.10;;;6.30;90.60;;;;;;5033406;28;20052;-78
2021/01/23 13:04:24;;;;;;;7.37;3.33;;;6.20;90.40;;;;;;5034582;28;20538;-77